createdAt,value
2019-02-04T00:01:22.844Z,18.70
2019-02-04T00:03:52.717Z,21.00
2019-02-04T00:06:22.261Z,19.20
2019-02-04T00:08:51.768Z,20.23
2019-02-04T00:11:21.239Z,18.33
2019-02-04T00:13:50.730Z,18.13
2019-02-04T00:16:20.468Z,17.37
2019-02-04T00:18:49.995Z,17.00
2019-02-04T00:21:19.489Z,18.90
2019-02-04T00:23:48.992Z,16.70
2019-02-04T00:26:18.484Z,16.90
2019-02-04T00:28:47.978Z,16.20
2019-02-04T00:31:17.469Z,16.70
2019-02-04T00:33:46.950Z,17.10
2019-02-04T00:36:16.444Z,17.77
2019-02-04T00:38:45.968Z,17.53
2019-02-04T00:41:15.526Z,16.00
2019-02-04T00:43:45.074Z,15.23
2019-02-04T00:46:14.950Z,15.87
2019-02-04T00:48:44.445Z,15.80
2019-02-04T00:51:13.982Z,16.73
2019-02-04T00:53:43.498Z,16.00
2019-02-04T00:56:13.084Z,15.70
2019-02-04T00:58:42.544Z,16.07
2019-02-04T01:01:12.344Z,19.17
2019-02-04T01:03:41.849Z,17.93
2019-02-04T01:06:11.313Z,17.87
2019-02-04T01:08:40.807Z,16.83
2019-02-04T01:11:10.403Z,15.17
2019-02-04T01:13:39.881Z,14.77
2019-02-04T01:16:09.375Z,13.83
2019-02-04T01:18:38.866Z,15.60
2019-02-04T01:21:08.326Z,14.70
2019-02-04T01:23:39.534Z,14.97
2019-02-04T01:26:09.029Z,15.23
2019-02-04T01:28:38.763Z,15.30
2019-02-04T01:31:08.303Z,14.47
2019-02-04T01:33:37.793Z,15.73
2019-02-04T01:36:07.289Z,14.77
2019-02-04T01:38:36.784Z,13.57
2019-02-04T01:41:06.287Z,13.83
2019-02-04T01:43:35.753Z,14.97
2019-02-04T01:46:05.289Z,14.60
2019-02-04T01:48:34.810Z,14.37
2019-02-04T01:51:04.305Z,14.30
2019-02-04T01:53:33.791Z,15.13
2019-02-04T01:56:03.634Z,13.17
2019-02-04T01:58:33.157Z,14.57
2019-02-04T02:01:02.660Z,13.43
2019-02-04T02:03:32.136Z,15.03
2019-02-04T02:06:01.622Z,14.03
2019-02-04T02:08:31.113Z,14.07
2019-02-04T02:11:00.754Z,14.10
2019-02-04T02:13:30.270Z,14.83
2019-02-04T02:15:59.772Z,18.63
2019-02-04T02:18:29.293Z,16.20
2019-02-04T02:20:58.799Z,13.80
2019-02-04T02:23:28.358Z,15.03
2019-02-04T02:25:57.879Z,14.90
2019-02-04T02:28:27.372Z,13.57
2019-02-04T02:30:56.857Z,12.73
2019-02-04T02:33:26.369Z,12.27
2019-02-04T02:35:57.593Z,13.40
2019-02-04T02:38:27.214Z,14.00
2019-02-04T02:40:56.686Z,12.60
2019-02-04T02:43:26.193Z,13.33
2019-02-04T02:45:55.652Z,12.63
2019-02-04T02:48:25.286Z,13.47
2019-02-04T02:50:54.764Z,15.10
2019-02-04T02:53:24.499Z,14.20
2019-02-04T02:55:54.053Z,12.47
2019-02-04T02:58:23.537Z,13.17
2019-02-04T03:00:53.054Z,13.13
2019-02-04T03:03:22.779Z,14.10
2019-02-04T03:05:52.252Z,13.97
2019-02-04T03:08:21.708Z,12.90
2019-02-04T03:10:51.298Z,11.83
2019-02-04T03:13:20.806Z,13.20
2019-02-04T03:15:50.258Z,11.83
2019-02-04T03:18:19.751Z,12.57
2019-02-04T03:20:49.590Z,12.23
2019-02-04T03:23:19.066Z,14.13
2019-02-04T03:25:48.564Z,12.20
2019-02-04T03:28:18.107Z,12.30
2019-02-04T03:30:47.614Z,12.80
2019-02-04T03:33:17.186Z,12.10
2019-02-04T03:35:46.714Z,11.93
2019-02-04T03:38:16.186Z,12.60
2019-02-04T03:40:45.682Z,11.03
2019-02-04T03:43:15.167Z,12.03
2019-02-04T03:45:44.777Z,11.63
2019-02-04T03:48:14.273Z,11.90
2019-02-04T03:50:43.734Z,11.30
2019-02-04T03:53:13.242Z,11.40
2019-02-04T03:55:42.732Z,12.27
2019-02-04T03:58:12.197Z,10.47
2019-02-04T04:00:41.699Z,10.63
2019-02-04T04:03:11.760Z,10.87
2019-02-04T04:05:41.601Z,10.43
2019-02-04T04:08:11.061Z,9.33
2019-02-04T04:10:40.625Z,10.90
2019-02-04T04:13:10.112Z,10.97
2019-02-04T04:15:39.781Z,12.00
2019-02-04T04:18:16.077Z,11.37
2019-02-04T04:20:40.580Z,11.13
2019-02-04T04:23:10.070Z,11.63
2019-02-04T04:25:39.581Z,12.60
2019-02-04T04:28:09.097Z,12.10
2019-02-04T04:30:38.933Z,12.53
2019-02-04T04:33:08.440Z,12.20
2019-02-04T04:35:37.953Z,12.33
2019-02-04T04:38:07.463Z,13.43
2019-02-04T04:40:36.914Z,13.87
2019-02-04T04:43:06.405Z,11.67
2019-02-04T04:45:36.651Z,11.80
2019-02-04T04:48:06.331Z,12.17
2019-02-04T04:50:35.853Z,12.67
2019-02-04T04:53:05.402Z,12.63
2019-02-04T04:55:34.910Z,13.00
2019-02-04T04:58:04.386Z,12.93
2019-02-04T05:00:34.108Z,12.27
2019-02-04T05:03:03.608Z,11.27
2019-02-04T05:05:35.091Z,11.93
2019-02-04T05:08:04.596Z,11.67
2019-02-04T05:10:34.073Z,11.53
2019-02-04T05:13:03.849Z,11.43
2019-02-04T05:15:33.411Z,11.30
2019-02-04T05:18:02.923Z,11.27
2019-02-04T05:20:32.446Z,12.40
2019-02-04T05:23:01.959Z,11.00
2019-02-04T05:25:31.446Z,12.07
2019-02-04T05:28:00.936Z,12.00
2019-02-04T05:30:30.386Z,11.57
2019-02-04T05:32:59.888Z,11.20
2019-02-04T05:35:29.400Z,12.40
2019-02-04T05:37:58.882Z,12.47
2019-02-04T05:40:28.881Z,11.53
2019-02-04T05:42:58.384Z,11.63
2019-02-04T05:45:28.004Z,13.23
2019-02-04T05:47:57.496Z,14.60
2019-02-04T05:50:26.967Z,14.77
2019-02-04T05:52:56.525Z,15.40
2019-02-04T05:55:26.234Z,13.50
2019-02-04T05:57:55.761Z,13.93
2019-02-04T06:00:41.377Z,12.73
2019-02-04T06:03:10.939Z,13.40
2019-02-04T06:05:40.952Z,14.43
2019-02-04T06:08:10.494Z,12.57
2019-02-04T06:10:39.957Z,13.00
2019-02-04T06:13:09.447Z,14.00
2019-02-04T06:15:38.918Z,13.70
2019-02-04T06:18:08.425Z,14.30
2019-02-04T06:20:38.189Z,11.83
2019-02-04T06:23:07.698Z,12.57
2019-02-04T06:25:37.179Z,12.23
2019-02-04T06:28:06.687Z,11.70
2019-02-04T06:30:36.168Z,11.37
2019-02-04T06:33:05.785Z,11.97
2019-02-04T06:35:35.276Z,11.60
2019-02-04T06:38:04.896Z,12.13
2019-02-04T06:40:34.419Z,11.60
2019-02-04T06:43:03.889Z,11.27
2019-02-04T06:45:33.394Z,11.50
2019-02-04T06:48:02.874Z,9.10
2019-02-04T06:50:33.667Z,10.20
2019-02-04T06:53:03.151Z,11.77
2019-02-04T06:55:33.418Z,10.50
2019-02-04T06:58:02.941Z,10.50
2019-02-04T07:00:32.442Z,11.77
2019-02-04T07:03:02.313Z,11.60
2019-02-04T07:05:43.135Z,11.60
2019-02-04T07:08:03.056Z,12.97
2019-02-04T07:10:32.582Z,12.77
2019-02-04T07:13:02.107Z,12.43
2019-02-04T07:15:31.611Z,13.23
2019-02-04T07:18:01.902Z,20.30
2019-02-04T07:20:31.738Z,26.00
2019-02-04T07:23:01.243Z,29.13
2019-02-04T07:25:30.739Z,30.97
2019-02-04T07:28:00.254Z,34.77
2019-02-04T07:30:29.866Z,34.53
2019-02-04T07:32:59.416Z,34.77
2019-02-04T07:35:28.935Z,37.33
2019-02-04T07:37:58.423Z,38.33
2019-02-04T07:40:32.515Z,40.70
2019-02-04T07:43:02.152Z,42.33
2019-02-04T07:45:32.778Z,42.13
2019-02-04T07:48:02.258Z,45.63
2019-02-04T07:50:31.742Z,47.40
2019-02-04T07:53:01.322Z,54.13
2019-02-04T07:55:30.872Z,52.80
2019-02-04T07:58:00.376Z,55.43
2019-02-04T08:00:31.767Z,57.60
2019-02-04T08:03:01.383Z,63.60
2019-02-04T08:05:30.844Z,62.30
2019-02-04T08:08:00.310Z,53.57
2019-02-04T08:10:29.768Z,56.53
2019-02-04T08:13:01.916Z,47.00
2019-02-04T08:15:33.288Z,41.80
2019-02-04T08:18:02.852Z,43.43
2019-02-04T08:20:32.314Z,39.07
2019-02-04T08:23:01.885Z,40.57
2019-02-04T08:25:31.381Z,36.47
2019-02-04T08:28:00.867Z,37.00
2019-02-04T08:30:32.465Z,36.50
2019-02-04T08:33:02.130Z,34.83
2019-02-04T08:35:32.115Z,37.73
2019-02-04T08:38:01.742Z,34.63
2019-02-04T08:40:31.488Z,37.43
2019-02-04T08:43:00.999Z,37.70
2019-02-04T08:45:30.548Z,37.70
2019-02-04T08:48:00.083Z,39.00
2019-02-04T08:50:30.377Z,39.53
2019-02-04T08:52:59.858Z,37.30
2019-02-04T08:55:29.359Z,35.90
2019-02-04T08:57:58.875Z,35.37
2019-02-04T09:00:28.578Z,35.80
2019-02-04T09:02:58.048Z,38.60
2019-02-04T09:05:27.635Z,38.37
2019-02-04T09:07:57.137Z,38.07
2019-02-04T09:10:33.435Z,37.13
2019-02-04T09:13:03.245Z,42.87
2019-02-04T09:15:32.754Z,41.87
2019-02-04T09:18:03.099Z,40.30
2019-02-04T09:20:32.691Z,38.83
2019-02-04T09:23:02.205Z,37.10
2019-02-04T09:25:32.102Z,38.50
2019-02-04T09:28:01.603Z,35.50
2019-02-04T09:30:31.223Z,33.67
2019-02-04T09:33:00.777Z,30.87
2019-02-04T09:35:30.245Z,31.53
2019-02-04T09:37:59.852Z,30.50
2019-02-04T09:40:41.139Z,30.33
2019-02-04T09:43:11.148Z,31.80
2019-02-04T09:45:41.993Z,30.60
2019-02-04T09:48:17.232Z,29.73
2019-02-04T09:50:47.883Z,29.00
2019-02-04T09:53:17.358Z,32.17
2019-02-04T09:55:46.900Z,31.23
2019-02-04T09:58:16.432Z,30.10
2019-02-04T10:00:46.064Z,31.70
2019-02-04T10:03:15.511Z,29.47
2019-02-04T10:05:45.367Z,28.47
2019-02-04T10:08:14.849Z,26.57
2019-02-04T10:10:44.325Z,28.40
2019-02-04T10:13:13.873Z,21.73
2019-02-04T10:15:45.751Z,21.07
2019-02-04T10:18:14.720Z,22.10
2019-02-04T10:20:44.213Z,22.17
2019-02-04T10:23:13.972Z,22.67
2019-02-04T10:25:43.976Z,22.40
2019-02-04T10:28:14.757Z,21.13
2019-02-04T10:30:44.598Z,20.17
2019-02-04T10:33:14.668Z,21.77
2019-02-04T10:35:44.544Z,21.00
2019-02-04T10:38:16.370Z,21.47
2019-02-04T10:40:45.578Z,20.77
2019-02-04T10:43:15.510Z,20.57
2019-02-04T10:45:45.617Z,20.53
2019-02-04T10:48:15.261Z,21.27
2019-02-04T10:50:46.707Z,20.37
2019-02-04T10:53:19.329Z,21.73
2019-02-04T10:55:49.505Z,20.43
2019-02-04T10:58:18.944Z,21.90
2019-02-04T11:00:48.806Z,20.53
2019-02-04T11:03:20.111Z,17.77
2019-02-04T11:05:49.781Z,17.73
2019-02-04T11:08:19.557Z,17.47
2019-02-04T11:10:49.127Z,16.27
2019-02-04T11:13:19.256Z,16.40
2019-02-04T11:15:50.368Z,18.10
2019-02-04T11:18:26.121Z,20.83
2019-02-04T11:20:58.080Z,23.30
2019-02-04T11:23:29.071Z,29.23
2019-02-04T11:25:58.546Z,27.60
2019-02-04T11:28:29.846Z,26.47
2019-02-04T11:31:01.818Z,26.27
2019-02-04T11:33:31.447Z,25.57
2019-02-04T11:36:01.012Z,27.50
2019-02-04T11:38:30.602Z,31.80
2019-02-04T11:41:00.188Z,35.40
2019-02-04T11:43:29.630Z,35.37
2019-02-04T11:45:59.255Z,35.27
2019-02-04T11:48:28.767Z,27.80
2019-02-04T11:51:08.942Z,25.93
2019-02-04T11:53:33.115Z,24.97
2019-02-04T11:56:00.898Z,26.30
2019-02-04T11:58:30.475Z,24.57
2019-02-04T12:01:01.140Z,27.73
2019-02-04T12:03:31.269Z,25.73
2019-02-04T12:06:00.765Z,22.60
2019-02-04T12:08:30.488Z,24.80
2019-02-04T12:11:10.088Z,27.03
2019-02-04T12:13:40.709Z,24.83
2019-02-04T12:16:10.224Z,30.70
2019-02-04T12:18:39.758Z,29.13
2019-02-04T12:21:20.716Z,26.53
2019-02-04T12:23:40.535Z,26.93
2019-02-04T12:26:10.038Z,29.87
2019-02-04T12:28:39.556Z,29.90
2019-02-04T12:31:09.185Z,37.33
2019-02-04T12:33:39.043Z,35.30
2019-02-04T12:36:08.673Z,34.13
2019-02-04T12:38:38.161Z,30.47
2019-02-04T12:41:07.798Z,29.23
2019-02-04T12:43:37.705Z,31.13
2019-02-04T12:46:07.268Z,32.13
2019-02-04T12:48:37.142Z,30.47
2019-02-04T12:51:06.765Z,31.20
2019-02-04T12:53:36.257Z,25.60
2019-02-04T12:56:05.785Z,24.90
2019-02-04T12:58:35.341Z,24.97
2019-02-04T13:01:06.231Z,26.00
2019-02-04T13:03:35.768Z,29.50
2019-02-04T13:06:06.958Z,28.07
2019-02-04T13:08:36.469Z,28.17
2019-02-04T13:11:06.303Z,26.90
2019-02-04T13:13:37.060Z,30.03
2019-02-04T13:16:07.066Z,28.53
2019-02-04T13:18:36.633Z,26.47
2019-02-04T13:21:06.325Z,24.90
2019-02-04T13:23:35.852Z,22.93
2019-02-04T13:26:05.354Z,22.73
2019-02-04T13:28:34.853Z,21.10
2019-02-04T13:31:04.772Z,22.83
2019-02-04T13:33:34.336Z,21.37
2019-02-04T13:36:05.173Z,19.93
2019-02-04T13:38:34.627Z,16.10
2019-02-04T13:41:07.854Z,13.37
2019-02-04T13:43:36.265Z,13.83
2019-02-04T13:46:06.059Z,11.20
2019-02-04T13:48:35.800Z,11.93
2019-02-04T13:51:05.717Z,11.57
2019-02-04T13:53:35.219Z,11.20
2019-02-04T13:56:05.090Z,12.27
2019-02-04T13:58:34.797Z,11.50
2019-02-04T14:01:04.319Z,11.90
2019-02-04T14:03:33.859Z,11.17
2019-02-04T14:06:03.378Z,10.50
2019-02-04T14:08:32.843Z,9.70
2019-02-04T14:11:02.379Z,10.20
2019-02-04T14:13:31.939Z,9.47
2019-02-04T14:16:01.500Z,10.40
2019-02-04T14:18:31.116Z,9.63
2019-02-04T14:21:00.597Z,10.30
2019-02-04T14:23:30.071Z,9.30
2019-02-04T14:26:00.046Z,8.93
2019-02-04T14:28:31.473Z,10.43
2019-02-04T14:31:00.795Z,10.17
2019-02-04T14:33:30.269Z,10.90
2019-02-04T14:35:59.776Z,10.30
2019-02-04T14:38:29.329Z,12.20
2019-02-04T14:40:58.796Z,12.10
2019-02-04T14:43:35.974Z,12.20
2019-02-04T14:46:37.174Z,12.97
2019-02-04T14:50:05.731Z,12.10
2019-02-04T14:53:10.717Z,12.77
2019-02-04T14:56:17.986Z,12.67
2019-02-04T14:58:56.600Z,12.87
2019-02-04T15:02:03.400Z,12.87
2019-02-04T15:05:00.853Z,12.60
2019-02-04T15:08:07.011Z,13.77
2019-02-04T15:10:54.736Z,13.07
2019-02-04T15:14:14.417Z,13.70
2019-02-04T15:16:58.577Z,14.17
2019-02-04T15:20:14.699Z,13.27
2019-02-04T15:23:36.669Z,13.73
2019-02-04T15:26:27.473Z,14.30
2019-02-04T15:29:18.133Z,13.83
2019-02-04T15:32:19.819Z,15.13
2019-02-04T15:35:18.856Z,14.50
2019-02-04T15:37:53.592Z,16.20
2019-02-04T15:40:38.896Z,13.73
2019-02-04T15:43:38.793Z,14.43
2019-02-04T15:46:54.678Z,15.37
2019-02-04T15:50:11.087Z,14.73
2019-02-04T15:52:45.435Z,14.93
2019-02-04T15:55:15.438Z,15.40
2019-02-04T15:57:44.996Z,17.27
2019-02-04T16:00:16.273Z,16.20
2019-02-04T16:02:45.722Z,16.50
2019-02-04T16:05:15.316Z,16.10
2019-02-04T16:07:44.924Z,16.20
2019-02-04T16:10:18.048Z,16.03
2019-02-04T16:12:48.070Z,15.30
2019-02-04T16:15:17.876Z,15.77
2019-02-04T16:17:47.477Z,15.30
2019-02-04T16:20:20.363Z,15.27
2019-02-04T16:22:58.675Z,14.10
2019-02-04T16:25:21.806Z,15.20
2019-02-04T16:27:51.363Z,14.30
2019-02-04T16:30:21.873Z,15.30
2019-02-04T16:32:52.969Z,14.27
2019-02-04T16:35:22.634Z,16.33
2019-02-04T16:37:52.257Z,16.67
2019-02-04T16:40:22.457Z,18.73
2019-02-04T16:42:52.112Z,21.37
2019-02-04T16:45:22.540Z,25.10
2019-02-04T16:47:52.303Z,27.33
2019-02-04T16:50:24.077Z,31.40
2019-02-04T16:52:53.602Z,36.03
2019-02-04T16:55:23.123Z,40.23
2019-02-04T16:57:54.568Z,42.00
2019-02-04T17:00:26.355Z,41.03
2019-02-04T17:02:55.872Z,39.83
2019-02-04T17:05:26.176Z,41.20
2019-02-04T17:07:55.961Z,39.47
2019-02-04T17:10:26.189Z,33.00
2019-02-04T17:12:55.832Z,27.33
2019-02-04T17:15:26.131Z,27.07
2019-02-04T17:17:55.716Z,26.10
2019-02-04T17:20:27.922Z,24.90
2019-02-04T17:22:57.524Z,24.90
2019-02-04T17:25:27.026Z,24.90
2019-02-04T17:27:56.589Z,24.50
2019-02-04T17:30:26.316Z,22.03
2019-02-04T17:32:55.810Z,23.57
2019-02-04T17:35:25.461Z,22.07
2019-02-04T17:37:54.964Z,20.30
2019-02-04T17:40:25.030Z,19.97
2019-02-04T17:42:54.985Z,19.33
2019-02-04T17:45:24.555Z,18.93
2019-02-04T17:47:54.518Z,19.27
2019-02-04T17:50:24.644Z,19.53
2019-02-04T17:52:54.158Z,19.83
2019-02-04T17:55:25.087Z,21.13
2019-02-04T17:57:55.071Z,22.00
2019-02-04T18:00:46.637Z,20.77
2019-02-04T18:03:16.137Z,18.00
2019-02-04T18:05:45.592Z,19.03
2019-02-04T18:08:15.483Z,17.73
2019-02-04T18:10:45.098Z,16.33
2019-02-04T18:13:14.649Z,16.43
2019-02-04T18:15:44.181Z,14.03
2019-02-04T18:18:13.667Z,15.17
2019-02-04T18:20:43.228Z,15.10
2019-02-04T18:23:12.923Z,14.87
2019-02-04T18:25:42.445Z,15.53
2019-02-04T18:28:12.064Z,14.57
2019-02-04T18:30:41.555Z,13.03
2019-02-04T18:33:13.909Z,12.80
2019-02-04T18:35:45.598Z,12.93
2019-02-04T18:38:15.058Z,13.20
2019-02-04T18:40:45.074Z,13.10
2019-02-04T18:43:14.579Z,12.87
2019-02-04T18:45:45.285Z,12.77
2019-02-04T18:48:14.775Z,14.10
2019-02-04T18:50:45.339Z,13.90
2019-02-04T18:53:14.880Z,15.63
2019-02-04T18:55:44.398Z,14.80
2019-02-04T18:58:13.901Z,15.57
2019-02-04T19:00:43.936Z,15.80
2019-02-04T19:03:17.338Z,16.20
2019-02-04T19:05:44.734Z,16.03
2019-02-04T19:08:14.249Z,15.57
2019-02-04T19:10:43.847Z,14.70
2019-02-04T19:13:13.330Z,14.67
2019-02-04T19:15:43.311Z,14.87
2019-02-04T19:18:18.501Z,16.10
2019-02-04T19:20:46.775Z,14.67
2019-02-04T19:23:16.262Z,15.53
2019-02-04T19:25:45.778Z,14.03
2019-02-04T19:28:15.377Z,13.63
2019-02-04T19:31:17.492Z,14.20
2019-02-04T19:33:46.933Z,14.07
2019-02-04T19:36:18.459Z,14.43
2019-02-04T19:38:47.886Z,13.87
2019-02-04T19:41:17.393Z,15.20
2019-02-04T19:43:46.935Z,13.67
2019-02-04T19:46:16.469Z,15.00
2019-02-04T19:48:46.106Z,15.33
2019-02-04T19:51:15.963Z,14.40
2019-02-04T19:53:45.481Z,14.97
2019-02-04T19:56:15.011Z,15.17
2019-02-04T19:58:44.513Z,15.43
2019-02-04T20:01:14.035Z,15.97
2019-02-04T20:03:43.527Z,15.97
2019-02-04T20:06:13.389Z,15.10
2019-02-04T20:08:42.894Z,16.67
2019-02-04T20:11:12.510Z,16.80
2019-02-04T20:13:42.057Z,17.17
2019-02-04T20:16:11.557Z,17.77
2019-02-04T20:18:41.147Z,19.50
2019-02-04T20:21:12.096Z,19.27
2019-02-04T20:23:41.618Z,21.80
2019-02-04T20:26:11.598Z,23.77
2019-02-04T20:28:41.261Z,21.57
2019-02-04T20:31:10.779Z,22.00
2019-02-04T20:33:40.267Z,22.47
2019-02-04T20:36:10.045Z,24.40
2019-02-04T20:38:39.595Z,24.20
2019-02-04T20:41:09.104Z,24.77
2019-02-04T20:43:38.585Z,23.17
2019-02-04T20:46:08.234Z,23.37
2019-02-04T20:48:37.700Z,21.53
2019-02-04T20:51:07.707Z,20.33
2019-02-04T20:53:37.212Z,21.37
2019-02-04T20:56:06.715Z,21.27
2019-02-04T20:58:36.244Z,19.50
2019-02-04T21:01:05.752Z,20.50
2019-02-04T21:03:35.264Z,17.40
2019-02-04T21:06:05.432Z,18.80
2019-02-04T21:08:34.957Z,19.23
2019-02-04T21:11:04.457Z,19.90
2019-02-04T21:13:33.967Z,21.63
2019-02-04T21:16:03.505Z,23.57
2019-02-04T21:18:33.064Z,23.07
2019-02-04T21:21:02.570Z,24.10
2019-02-04T21:23:32.115Z,24.60
2019-02-04T21:26:01.672Z,19.43
2019-02-04T21:28:31.218Z,21.17
2019-02-04T21:31:00.814Z,17.87
2019-02-04T21:33:30.341Z,19.23
2019-02-04T21:35:59.813Z,18.67
2019-02-04T21:38:30.341Z,17.40
2019-02-04T21:40:59.922Z,17.90
2019-02-04T21:43:29.386Z,17.10
2019-02-04T21:46:00.679Z,18.17
2019-02-04T21:48:30.526Z,16.33
2019-02-04T21:51:00.003Z,14.57
2019-02-04T21:53:29.462Z,14.37
2019-02-04T21:55:59.299Z,13.97
2019-02-04T21:58:28.764Z,12.97
2019-02-04T22:00:58.638Z,15.00
2019-02-04T22:03:28.383Z,15.57
2019-02-04T22:05:57.847Z,16.07
2019-02-04T22:08:27.357Z,15.67
2019-02-04T22:10:57.266Z,14.00
2019-02-04T22:13:26.782Z,13.63
2019-02-04T22:15:56.472Z,13.27
2019-02-04T22:18:25.982Z,13.10
2019-02-04T22:20:55.522Z,12.67
2019-02-04T22:23:24.981Z,13.77
2019-02-04T22:25:54.817Z,13.17
2019-02-04T22:28:24.285Z,13.50
2019-02-04T22:30:54.172Z,13.00
2019-02-04T22:33:23.683Z,14.23
2019-02-04T22:35:53.171Z,13.53
2019-02-04T22:38:22.651Z,13.37
2019-02-04T22:40:52.121Z,13.47
2019-02-04T22:43:21.598Z,13.17
2019-02-04T22:45:51.075Z,13.23
2019-02-04T22:48:20.665Z,13.23
2019-02-04T22:50:50.113Z,14.07
2019-02-04T22:53:19.603Z,14.00
2019-02-04T22:55:49.115Z,15.10
2019-02-04T22:58:18.584Z,12.97
2019-02-04T23:01:42.643Z,13.40
2019-02-04T23:04:12.122Z,15.10
2019-02-04T23:06:41.985Z,14.30
2019-02-04T23:09:11.502Z,15.33
2019-02-04T23:11:40.985Z,13.67
2019-02-04T23:14:10.462Z,14.43
2019-02-04T23:16:39.948Z,12.87
2019-02-04T23:19:09.640Z,13.03
2019-02-04T23:21:39.534Z,12.97
2019-02-04T23:24:09.282Z,12.90
2019-02-04T23:26:38.844Z,14.23
2019-02-04T23:29:08.326Z,12.27
2019-02-04T23:31:37.946Z,12.60
2019-02-04T23:34:07.732Z,12.00
2019-02-04T23:36:37.610Z,12.63
2019-02-04T23:39:10.034Z,13.40
2019-02-04T23:41:39.533Z,12.00
2019-02-04T23:44:09.142Z,12.30
2019-02-04T23:46:38.664Z,12.33
2019-02-04T23:49:08.679Z,12.67
2019-02-04T23:51:38.165Z,13.07
2019-02-04T23:54:07.950Z,12.53
2019-02-04T23:56:37.400Z,13.17
2019-02-04T23:59:06.994Z,13.60
